sensor_id;sensor_type;location;lat;lon;timestamp;temperature;humidity
6536;DHT22;34330;52.08032700;5.40923460;2022-09-09T00:01:49;19.40;81.90
6536;DHT22;34330;52.08032700;5.40923460;2022-09-09T00:04:27;19.40;82.10
6536;DHT22;34330;52.08032700;5.40923460;2022-09-09T00:07:01;19.30;83.10
6536;DHT22;34330;52.08032700;5.40923460;2022-09-09T00:09:35;19.30;83.30
6536;DHT22;34330;52.08032700;5.40923460;2022-09-09T00:12:11;19.40;83.10
6536;DHT22;34330;52.08032700;5.40923460;2022-09-09T00:14:47;19.40;83.00
6536;DHT22;34330;52.08032700;5.40923460;2022-09-09T00:17:26;19.40;82.90
6536;DHT22;34330;52.08032700;5.40923460;2022-09-09T00:20:02;19.50;82.70
6536;DHT22;34330;52.08032700;5.40923460;2022-09-09T00:22:33;19.50;82.60
6536;DHT22;34330;52.08032700;5.40923460;2022-09-09T00:25:08;19.50;82.60
6536;DHT22;34330;52.08032700;5.40923460;2022-09-09T00:27:43;19.40;83.40
6536;DHT22;34330;52.08032700;5.40923460;2022-09-09T00:30:17;19.40;82.50
6536;DHT22;34330;52.08032700;5.40923460;2022-09-09T00:32:47;19.40;82.60
6536;DHT22;34330;52.08032700;5.40923460;2022-09-09T00:35:18;19.40;82.30
6536;DHT22;34330;52.08032700;5.40923460;2022-09-09T00:37:51;19.30;82.20
6536;DHT22;34330;52.08032700;5.40923460;2022-09-09T00:40:27;19.30;82.20
6536;DHT22;34330;52.08032700;5.40923460;2022-09-09T00:43:10;19.30;82.30
6536;DHT22;34330;52.08032700;5.40923460;2022-09-09T00:45:59;19.30;82.40
6536;DHT22;34330;52.08032700;5.40923460;2022-09-09T00:48:37;19.20;82.20
6536;DHT22;34330;52.08032700;5.40923460;2022-09-09T00:51:15;19.20;82.20
6536;DHT22;34330;52.08032700;5.40923460;2022-09-09T00:54:02;19.20;82.40
6536;DHT22;34330;52.08032700;5.40923460;2022-09-09T00:56:37;19.10;82.30
6536;DHT22;34330;52.08032700;5.40923460;2022-09-09T00:59:18;19.10;82.50
6536;DHT22;34330;52.08032700;5.40923460;2022-09-09T01:01:54;19.00;83.50
6536;DHT22;34330;52.08032700;5.40923460;2022-09-09T01:04:27;18.90;83.80
6536;DHT22;34330;52.08032700;5.40923460;2022-09-09T01:07:03;18.90;83.40
6536;DHT22;34330;52.08032700;5.40923460;2022-09-09T01:09:41;18.90;83.40
6536;DHT22;34330;52.08032700;5.40923460;2022-09-09T01:12:14;18.90;83.20
6536;DHT22;34330;52.08032700;5.40923460;2022-09-09T01:14:48;18.90;83.20
6536;DHT22;34330;52.08032700;5.40923460;2022-09-09T01:17:20;18.90;83.10
6536;DHT22;34330;52.08032700;5.40923460;2022-09-09T01:20:03;18.90;83.10
6536;DHT22;34330;52.08032700;5.40923460;2022-09-09T01:22:35;18.90;83.20
6536;DHT22;34330;52.08032700;5.40923460;2022-09-09T01:25:18;18.80;83.00
6536;DHT22;34330;52.08032700;5.40923460;2022-09-09T01:27:51;18.90;83.10
6536;DHT22;34330;52.08032700;5.40923460;2022-09-09T01:30:21;18.80;83.00
6536;DHT22;34330;52.08032700;5.40923460;2022-09-09T01:32:52;18.80;83.00
6536;DHT22;34330;52.08032700;5.40923460;2022-09-09T01:35:33;18.80;83.00
6536;DHT22;34330;52.08032700;5.40923460;2022-09-09T01:38:02;18.80;83.00
6536;DHT22;34330;52.08032700;5.40923460;2022-09-09T01:40:30;18.70;83.00
6536;DHT22;34330;52.08032700;5.40923460;2022-09-09T01:43:00;18.70;83.10
6536;DHT22;34330;52.08032700;5.40923460;2022-09-09T01:45:30;18.70;83.00
6536;DHT22;34330;52.08032700;5.40923460;2022-09-09T01:47:58;18.70;83.20
6536;DHT22;34330;52.08032700;5.40923460;2022-09-09T01:50:26;18.60;83.20
6536;DHT22;34330;52.08032700;5.40923460;2022-09-09T01:52:58;18.60;83.20
6536;DHT22;34330;52.08032700;5.40923460;2022-09-09T01:55:30;18.60;83.20
6536;DHT22;34330;52.08032700;5.40923460;2022-09-09T01:58:11;18.50;83.10
6536;DHT22;34330;52.08032700;5.40923460;2022-09-09T02:00:50;18.50;83.00
6536;DHT22;34330;52.08032700;5.40923460;2022-09-09T02:03:24;18.50;83.10
6536;DHT22;34330;52.08032700;5.40923460;2022-09-09T02:06:00;18.50;83.90
6536;DHT22;34330;52.08032700;5.40923460;2022-09-09T02:08:36;18.50;84.10
6536;DHT22;34330;52.08032700;5.40923460;2022-09-09T02:11:11;18.50;84.10
6536;DHT22;34330;52.08032700;5.40923460;2022-09-09T02:13:43;18.50;84.00
6536;DHT22;34330;52.08032700;5.40923460;2022-09-09T02:16:16;18.40;84.20
6536;DHT22;34330;52.08032700;5.40923460;2022-09-09T02:18:50;18.40;84.40
6536;DHT22;34330;52.08032700;5.40923460;2022-09-09T02:21:19;18.40;84.30
6536;DHT22;34330;52.08032700;5.40923460;2022-09-09T02:23:48;18.30;83.80
6536;DHT22;34330;52.08032700;5.40923460;2022-09-09T02:26:19;18.40;84.10
6536;DHT22;34330;52.08032700;5.40923460;2022-09-09T02:28:54;18.40;84.00
6536;DHT22;34330;52.08032700;5.40923460;2022-09-09T02:31:26;18.30;84.10
6536;DHT22;34330;52.08032700;5.40923460;2022-09-09T02:33:55;18.30;83.90
6536;DHT22;34330;52.08032700;5.40923460;2022-09-09T02:36:27;18.30;84.10
6536;DHT22;34330;52.08032700;5.40923460;2022-09-09T02:38:57;18.30;84.20
6536;DHT22;34330;52.08032700;5.40923460;2022-09-09T02:41:27;18.20;83.70
6536;DHT22;34330;52.08032700;5.40923460;2022-09-09T02:43:57;18.40;84.30
6536;DHT22;34330;52.08032700;5.40923460;2022-09-09T02:46:34;18.20;83.90
6536;DHT22;34330;52.08032700;5.40923460;2022-09-09T02:49:06;18.20;84.30
6536;DHT22;34330;52.08032700;5.40923460;2022-09-09T02:51:40;18.20;84.00
6536;DHT22;34330;52.08032700;5.40923460;2022-09-09T02:54:17;18.20;84.20
6536;DHT22;34330;52.08032700;5.40923460;2022-09-09T02:56:52;18.10;84.20
6536;DHT22;34330;52.08032700;5.40923460;2022-09-09T02:59:22;18.10;84.30
6536;DHT22;34330;52.08032700;5.40923460;2022-09-09T03:01:52;18.00;84.20
6536;DHT22;34330;52.08032700;5.40923460;2022-09-09T03:04:20;18.10;84.20
6536;DHT22;34330;52.08032700;5.40923460;2022-09-09T03:06:48;18.00;84.00
6536;DHT22;34330;52.08032700;5.40923460;2022-09-09T03:09:16;18.10;84.00
6536;DHT22;34330;52.08032700;5.40923460;2022-09-09T03:11:44;18.00;84.10
6536;DHT22;34330;52.08032700;5.40923460;2022-09-09T03:14:12;20.70;86.50
6536;DHT22;34330;52.08032700;5.40923460;2022-09-09T03:16:41;17.90;83.80
6536;DHT22;34330;52.08032700;5.40923460;2022-09-09T03:19:09;17.90;84.00
6536;DHT22;34330;52.08032700;5.40923460;2022-09-09T03:21:37;17.90;84.00
6536;DHT22;34330;52.08032700;5.40923460;2022-09-09T03:24:05;17.90;84.00
6536;DHT22;34330;52.08032700;5.40923460;2022-09-09T03:26:33;17.80;84.20
6536;DHT22;34330;52.08032700;5.40923460;2022-09-09T03:29:01;17.80;85.10
6536;DHT22;34330;52.08032700;5.40923460;2022-09-09T03:31:29;17.80;84.60
6536;DHT22;34330;52.08032700;5.40923460;2022-09-09T03:33:59;17.70;84.60
6536;DHT22;34330;52.08032700;5.40923460;2022-09-09T03:36:26;17.70;84.50
6536;DHT22;34330;52.08032700;5.40923460;2022-09-09T03:38:55;17.70;84.60
6536;DHT22;34330;52.08032700;5.40923460;2022-09-09T03:41:23;17.70;84.60
6536;DHT22;34330;52.08032700;5.40923460;2022-09-09T03:43:51;17.70;85.00
6536;DHT22;34330;52.08032700;5.40923460;2022-09-09T03:46:20;17.70;85.00
6536;DHT22;34330;52.08032700;5.40923460;2022-09-09T03:48:48;17.70;85.10
6536;DHT22;34330;52.08032700;5.40923460;2022-09-09T03:51:18;17.70;84.70
6536;DHT22;34330;52.08032700;5.40923460;2022-09-09T03:53:47;17.60;85.00
6536;DHT22;34330;52.08032700;5.40923460;2022-09-09T03:56:15;17.60;84.80
6536;DHT22;34330;52.08032700;5.40923460;2022-09-09T03:58:43;17.60;85.00
6536;DHT22;34330;52.08032700;5.40923460;2022-09-09T04:01:14;17.60;85.10
6536;DHT22;34330;52.08032700;5.40923460;2022-09-09T04:03:45;19.60;87.30
6536;DHT22;34330;52.08032700;5.40923460;2022-09-09T04:06:13;17.60;85.30
6536;DHT22;34330;52.08032700;5.40923460;2022-09-09T04:08:43;17.50;85.50
6536;DHT22;34330;52.08032700;5.40923460;2022-09-09T04:11:11;17.50;85.40
6536;DHT22;34330;52.08032700;5.40923460;2022-09-09T04:13:39;19.90;87.80
6536;DHT22;34330;52.08032700;5.40923460;2022-09-09T04:16:09;17.50;85.60
6536;DHT22;34330;52.08032700;5.40923460;2022-09-09T04:18:38;17.50;86.00
6536;DHT22;34330;52.08032700;5.40923460;2022-09-09T04:21:06;17.50;85.90
6536;DHT22;34330;52.08032700;5.40923460;2022-09-09T04:23:34;17.50;85.90
6536;DHT22;34330;52.08032700;5.40923460;2022-09-09T04:26:04;17.50;86.10
6536;DHT22;34330;52.08032700;5.40923460;2022-09-09T04:28:35;17.50;86.50
6536;DHT22;34330;52.08032700;5.40923460;2022-09-09T04:31:05;17.50;86.50
6536;DHT22;34330;52.08032700;5.40923460;2022-09-09T04:33:34;17.40;86.50
6536;DHT22;34330;52.08032700;5.40923460;2022-09-09T04:36:06;17.50;86.40
6536;DHT22;34330;52.08032700;5.40923460;2022-09-09T04:38:34;17.50;86.80
6536;DHT22;34330;52.08032700;5.40923460;2022-09-09T04:41:04;17.50;86.90
6536;DHT22;34330;52.08032700;5.40923460;2022-09-09T04:43:32;17.50;87.00
6536;DHT22;34330;52.08032700;5.40923460;2022-09-09T04:46:00;17.50;86.90
6536;DHT22;34330;52.08032700;5.40923460;2022-09-09T04:48:28;17.50;86.90
6536;DHT22;34330;52.08032700;5.40923460;2022-09-09T04:50:58;17.60;86.80
6536;DHT22;34330;52.08032700;5.40923460;2022-09-09T04:53:27;17.60;87.00
6536;DHT22;34330;52.08032700;5.40923460;2022-09-09T04:56:01;17.60;86.70
6536;DHT22;34330;52.08032700;5.40923460;2022-09-09T04:58:31;17.50;87.10
6536;DHT22;34330;52.08032700;5.40923460;2022-09-09T05:01:06;17.50;86.70
6536;DHT22;34330;52.08032700;5.40923460;2022-09-09T05:03:34;17.60;87.10
6536;DHT22;34330;52.08032700;5.40923460;2022-09-09T05:06:04;17.50;86.60
6536;DHT22;34330;52.08032700;5.40923460;2022-09-09T05:08:32;17.50;87.00
6536;DHT22;34330;52.08032700;5.40923460;2022-09-09T05:11:00;17.50;86.60
6536;DHT22;34330;52.08032700;5.40923460;2022-09-09T05:13:30;17.50;86.70
6536;DHT22;34330;52.08032700;5.40923460;2022-09-09T05:16:03;17.50;86.90
6536;DHT22;34330;52.08032700;5.40923460;2022-09-09T05:19:04;17.50;87.00
6536;DHT22;34330;52.08032700;5.40923460;2022-09-09T05:21:34;17.50;87.30
6536;DHT22;34330;52.08032700;5.40923460;2022-09-09T05:24:02;17.50;86.80
6536;DHT22;34330;52.08032700;5.40923460;2022-09-09T05:26:30;17.50;86.90
6536;DHT22;34330;52.08032700;5.40923460;2022-09-09T05:29:00;17.50;86.80
6536;DHT22;34330;52.08032700;5.40923460;2022-09-09T05:31:30;17.50;86.90
6536;DHT22;34330;52.08032700;5.40923460;2022-09-09T05:33:59;17.50;87.20
6536;DHT22;34330;52.08032700;5.40923460;2022-09-09T05:36:27;17.50;87.00
6536;DHT22;34330;52.08032700;5.40923460;2022-09-09T05:38:55;17.50;87.10
6536;DHT22;34330;52.08032700;5.40923460;2022-09-09T05:41:23;17.50;87.20
6536;DHT22;34330;52.08032700;5.40923460;2022-09-09T05:43:51;17.50;87.30
6536;DHT22;34330;52.08032700;5.40923460;2022-09-09T05:46:22;17.50;87.40
6536;DHT22;34330;52.08032700;5.40923460;2022-09-09T05:48:52;17.50;87.90
6536;DHT22;34330;52.08032700;5.40923460;2022-09-09T05:51:22;17.50;88.00
6536;DHT22;34330;52.08032700;5.40923460;2022-09-09T05:53:51;17.50;88.10
6536;DHT22;34330;52.08032700;5.40923460;2022-09-09T05:56:23;17.50;88.20
6536;DHT22;34330;52.08032700;5.40923460;2022-09-09T05:58:52;17.50;88.40
6536;DHT22;34330;52.08032700;5.40923460;2022-09-09T06:01:23;17.60;88.70
6536;DHT22;34330;52.08032700;5.40923460;2022-09-09T06:03:51;17.60;88.90
6536;DHT22;34330;52.08032700;5.40923460;2022-09-09T06:06:21;17.60;88.90
6536;DHT22;34330;52.08032700;5.40923460;2022-09-09T06:08:51;17.60;89.10
6536;DHT22;34330;52.08032700;5.40923460;2022-09-09T06:11:20;20.40;90.90
6536;DHT22;34330;52.08032700;5.40923460;2022-09-09T06:13:49;17.70;89.60
6536;DHT22;34330;52.08032700;5.40923460;2022-09-09T06:16:18;17.80;89.50
6536;DHT22;34330;52.08032700;5.40923460;2022-09-09T06:18:48;17.80;89.60
6536;DHT22;34330;52.08032700;5.40923460;2022-09-09T06:21:18;17.80;89.60
6536;DHT22;34330;52.08032700;5.40923460;2022-09-09T06:23:47;17.90;90.00
6536;DHT22;34330;52.08032700;5.40923460;2022-09-09T06:26:21;18.00;90.10
6536;DHT22;34330;52.08032700;5.40923460;2022-09-09T06:28:53;18.00;90.10
6536;DHT22;34330;52.08032700;5.40923460;2022-09-09T06:31:22;18.10;90.00
6536;DHT22;34330;52.08032700;5.40923460;2022-09-09T06:33:58;18.10;90.10
6536;DHT22;34330;52.08032700;5.40923460;2022-09-09T06:36:27;18.20;90.20
6536;DHT22;34330;52.08032700;5.40923460;2022-09-09T06:38:55;16.10;88.60
6536;DHT22;34330;52.08032700;5.40923460;2022-09-09T06:41:25;18.30;90.30
6536;DHT22;34330;52.08032700;5.40923460;2022-09-09T06:43:53;18.30;90.40
6536;DHT22;34330;52.08032700;5.40923460;2022-09-09T06:46:23;18.40;90.40
6536;DHT22;34330;52.08032700;5.40923460;2022-09-09T06:48:54;18.50;90.40
6536;DHT22;34330;52.08032700;5.40923460;2022-09-09T06:51:28;18.60;90.40
6536;DHT22;34330;52.08032700;5.40923460;2022-09-09T06:53:57;18.70;90.40
6536;DHT22;34330;52.08032700;5.40923460;2022-09-09T06:56:27;18.70;90.30
6536;DHT22;34330;52.08032700;5.40923460;2022-09-09T06:58:56;18.80;90.30
6536;DHT22;34330;52.08032700;5.40923460;2022-09-09T07:01:26;18.90;90.20
6536;DHT22;34330;52.08032700;5.40923460;2022-09-09T07:03:56;19.00;90.10
6536;DHT22;34330;52.08032700;5.40923460;2022-09-09T07:06:28;19.00;90.00
6536;DHT22;34330;52.08032700;5.40923460;2022-09-09T07:08:58;19.00;89.80
6536;DHT22;34330;52.08032700;5.40923460;2022-09-09T07:11:27;19.10;89.80
6536;DHT22;34330;52.08032700;5.40923460;2022-09-09T07:13:57;19.10;89.80
6536;DHT22;34330;52.08032700;5.40923460;2022-09-09T07:16:26;19.10;90.20
6536;DHT22;34330;52.08032700;5.40923460;2022-09-09T07:18:54;19.20;90.30
6536;DHT22;34330;52.08032700;5.40923460;2022-09-09T07:21:26;19.20;90.30
6536;DHT22;34330;52.08032700;5.40923460;2022-09-09T07:23:54;19.30;90.40
6536;DHT22;34330;52.08032700;5.40923460;2022-09-09T07:26:25;19.40;90.10
6536;DHT22;34330;52.08032700;5.40923460;2022-09-09T07:28:53;19.50;89.60
6536;DHT22;34330;52.08032700;5.40923460;2022-09-09T07:31:25;19.50;88.70
6536;DHT22;34330;52.08032700;5.40923460;2022-09-09T07:33:54;20.00;89.20
6536;DHT22;34330;52.08032700;5.40923460;2022-09-09T07:36:24;22.50;90.60
6536;DHT22;34330;52.08032700;5.40923460;2022-09-09T07:39:02;19.70;88.80
6536;DHT22;34330;52.08032700;5.40923460;2022-09-09T07:41:34;19.70;88.60
6536;DHT22;34330;52.08032700;5.40923460;2022-09-09T07:44:06;19.70;88.20
6536;DHT22;34330;52.08032700;5.40923460;2022-09-09T07:46:36;19.70;88.20
6536;DHT22;34330;52.08032700;5.40923460;2022-09-09T07:49:07;19.80;88.30
6536;DHT22;34330;52.08032700;5.40923460;2022-09-09T07:51:37;19.80;88.80
6536;DHT22;34330;52.08032700;5.40923460;2022-09-09T07:54:11;19.90;88.30
6536;DHT22;34330;52.08032700;5.40923460;2022-09-09T07:56:41;20.00;88.20
6536;DHT22;34330;52.08032700;5.40923460;2022-09-09T07:59:10;20.00;88.20
6536;DHT22;34330;52.08032700;5.40923460;2022-09-09T08:01:41;20.10;87.70
6536;DHT22;34330;52.08032700;5.40923460;2022-09-09T08:04:11;20.10;87.60
6536;DHT22;34330;52.08032700;5.40923460;2022-09-09T08:06:45;20.20;87.30
6536;DHT22;34330;52.08032700;5.40923460;2022-09-09T08:09:16;20.20;86.70
6536;DHT22;34330;52.08032700;5.40923460;2022-09-09T08:11:44;21.70;87.90
6536;DHT22;34330;52.08032700;5.40923460;2022-09-09T08:14:15;20.20;86.00
6536;DHT22;34330;52.08032700;5.40923460;2022-09-09T08:16:45;20.20;86.40
6536;DHT22;34330;52.08032700;5.40923460;2022-09-09T08:19:15;20.20;86.60
6536;DHT22;34330;52.08032700;5.40923460;2022-09-09T08:21:44;23.10;89.20
6536;DHT22;34330;52.08032700;5.40923460;2022-09-09T08:24:14;20.20;86.30
6536;DHT22;34330;52.08032700;5.40923460;2022-09-09T08:26:44;20.20;85.70
6536;DHT22;34330;52.08032700;5.40923460;2022-09-09T08:29:14;20.20;85.50
6536;DHT22;34330;52.08032700;5.40923460;2022-09-09T08:31:44;20.20;85.40
6536;DHT22;34330;52.08032700;5.40923460;2022-09-09T08:34:14;20.20;85.70
6536;DHT22;34330;52.08032700;5.40923460;2022-09-09T08:36:44;20.10;86.10
6536;DHT22;34330;52.08032700;5.40923460;2022-09-09T08:39:16;20.10;86.20
6536;DHT22;34330;52.08032700;5.40923460;2022-09-09T08:45:15;20.20;86.10
6536;DHT22;34330;52.08032700;5.40923460;2022-09-09T08:47:56;20.20;86.10
6536;DHT22;34330;52.08032700;5.40923460;2022-09-09T08:50:28;20.20;85.40
6536;DHT22;34330;52.08032700;5.40923460;2022-09-09T08:53:01;20.30;85.40
6536;DHT22;34330;52.08032700;5.40923460;2022-09-09T08:55:37;20.30;85.50
6536;DHT22;34330;52.08032700;5.40923460;2022-09-09T08:58:13;20.30;86.00
6536;DHT22;34330;52.08032700;5.40923460;2022-09-09T09:01:11;20.30;86.10
6536;DHT22;34330;52.08032700;5.40923460;2022-09-09T09:03:48;20.40;85.80
6536;DHT22;34330;52.08032700;5.40923460;2022-09-09T09:06:28;20.40;85.50
6536;DHT22;34330;52.08032700;5.40923460;2022-09-09T09:09:07;20.40;85.40
6536;DHT22;34330;52.08032700;5.40923460;2022-09-09T09:11:39;20.50;85.30
6536;DHT22;34330;52.08032700;5.40923460;2022-09-09T09:14:11;20.50;85.00
6536;DHT22;34330;52.08032700;5.40923460;2022-09-09T09:16:48;20.50;84.70
6536;DHT22;34330;52.08032700;5.40923460;2022-09-09T09:19:18;20.50;84.40
6536;DHT22;34330;52.08032700;5.40923460;2022-09-09T09:21:54;20.50;84.50
6536;DHT22;34330;52.08032700;5.40923460;2022-09-09T09:24:29;20.50;84.50
6536;DHT22;34330;52.08032700;5.40923460;2022-09-09T09:27:10;20.50;84.50
6536;DHT22;34330;52.08032700;5.40923460;2022-09-09T09:29:40;20.50;84.50
6536;DHT22;34330;52.08032700;5.40923460;2022-09-09T09:32:33;20.50;84.30
6536;DHT22;34330;52.08032700;5.40923460;2022-09-09T09:35:06;20.50;84.20
6536;DHT22;34330;52.08032700;5.40923460;2022-09-09T09:37:37;20.60;84.20
6536;DHT22;34330;52.08032700;5.40923460;2022-09-09T09:40:27;20.60;84.00
6536;DHT22;34330;52.08032700;5.40923460;2022-09-09T09:42:57;20.60;84.00
6536;DHT22;34330;52.08032700;5.40923460;2022-09-09T09:45:29;20.60;84.80
6536;DHT22;34330;52.08032700;5.40923460;2022-09-09T09:48:01;20.60;83.70
6536;DHT22;34330;52.08032700;5.40923460;2022-09-09T09:50:33;20.60;83.80
6536;DHT22;34330;52.08032700;5.40923460;2022-09-09T09:53:04;20.60;83.50
6536;DHT22;34330;52.08032700;5.40923460;2022-09-09T09:55:35;20.70;84.00
6536;DHT22;34330;52.08032700;5.40923460;2022-09-09T09:58:06;20.70;83.90
6536;DHT22;34330;52.08032700;5.40923460;2022-09-09T10:00:34;20.70;83.70
6536;DHT22;34330;52.08032700;5.40923460;2022-09-09T10:03:14;20.70;83.50
6536;DHT22;34330;52.08032700;5.40923460;2022-09-09T10:05:47;20.70;83.70
6536;DHT22;34330;52.08032700;5.40923460;2022-09-09T10:08:16;20.80;83.50
6536;DHT22;34330;52.08032700;5.40923460;2022-09-09T10:10:57;20.80;83.50
6536;DHT22;34330;52.08032700;5.40923460;2022-09-09T10:13:35;20.80;83.30
6536;DHT22;34330;52.08032700;5.40923460;2022-09-09T10:16:18;20.80;83.30
6536;DHT22;34330;52.08032700;5.40923460;2022-09-09T10:18:58;20.80;83.40
6536;DHT22;34330;52.08032700;5.40923460;2022-09-09T10:21:46;22.00;84.40
6536;DHT22;34330;52.08032700;5.40923460;2022-09-09T10:27:21;20.90;83.10
6536;DHT22;34330;52.08032700;5.40923460;2022-09-09T10:30:01;20.90;82.70
6536;DHT22;34330;52.08032700;5.40923460;2022-09-09T10:32:46;20.90;83.00
6536;DHT22;34330;52.08032700;5.40923460;2022-09-09T10:35:27;20.90;83.30
6536;DHT22;34330;52.08032700;5.40923460;2022-09-09T10:38:10;20.90;84.00
6536;DHT22;34330;52.08032700;5.40923460;2022-09-09T10:40:46;20.90;84.10
6536;DHT22;34330;52.08032700;5.40923460;2022-09-09T10:43:26;20.90;84.30
6536;DHT22;34330;52.08032700;5.40923460;2022-09-09T10:46:03;20.90;84.50
6536;DHT22;34330;52.08032700;5.40923460;2022-09-09T10:48:47;20.90;84.80
6536;DHT22;34330;52.08032700;5.40923460;2022-09-09T10:51:28;20.90;85.20
6536;DHT22;34330;52.08032700;5.40923460;2022-09-09T10:54:13;21.90;86.20
6536;DHT22;34330;52.08032700;5.40923460;2022-09-09T10:56:44;20.90;85.70
6536;DHT22;34330;52.08032700;5.40923460;2022-09-09T10:59:19;20.90;86.20
6536;DHT22;34330;52.08032700;5.40923460;2022-09-09T11:01:55;20.90;88.10
6536;DHT22;34330;52.08032700;5.40923460;2022-09-09T11:04:28;21.00;87.80
6536;DHT22;34330;52.08032700;5.40923460;2022-09-09T11:07:00;21.00;87.50
6536;DHT22;34330;52.08032700;5.40923460;2022-09-09T11:09:41;21.10;88.00
6536;DHT22;34330;52.08032700;5.40923460;2022-09-09T11:12:15;21.20;87.60
6536;DHT22;34330;52.08032700;5.40923460;2022-09-09T11:14:49;21.30;87.80
6536;DHT22;34330;52.08032700;5.40923460;2022-09-09T11:17:23;21.40;87.90
6536;DHT22;34330;52.08032700;5.40923460;2022-09-09T11:19:51;21.50;87.70
6536;DHT22;34330;52.08032700;5.40923460;2022-09-09T11:22:25;21.60;86.90
6536;DHT22;34330;52.08032700;5.40923460;2022-09-09T11:24:58;21.70;86.10
6536;DHT22;34330;52.08032700;5.40923460;2022-09-09T11:27:31;21.80;85.50
6536;DHT22;34330;52.08032700;5.40923460;2022-09-09T11:30:19;21.70;85.00
6536;DHT22;34330;52.08032700;5.40923460;2022-09-09T11:39:50;21.70;84.20
6536;DHT22;34330;52.08032700;5.40923460;2022-09-09T11:42:23;21.70;84.00
6536;DHT22;34330;52.08032700;5.40923460;2022-09-09T11:44:52;22.00;84.00
6536;DHT22;34330;52.08032700;5.40923460;2022-09-09T11:47:24;21.70;83.90
6536;DHT22;34330;52.08032700;5.40923460;2022-09-09T11:50:08;21.70;84.10
6536;DHT22;34330;52.08032700;5.40923460;2022-09-09T11:52:38;21.70;83.90
6536;DHT22;34330;52.08032700;5.40923460;2022-09-09T11:55:10;21.70;83.90
6536;DHT22;34330;52.08032700;5.40923460;2022-09-09T11:57:39;21.70;84.20
6536;DHT22;34330;52.08032700;5.40923460;2022-09-09T12:00:30;21.60;83.90
6536;DHT22;34330;52.08032700;5.40923460;2022-09-09T12:02:59;21.60;84.10
6536;DHT22;34330;52.08032700;5.40923460;2022-09-09T12:05:37;21.60;83.90
6536;DHT22;34330;52.08032700;5.40923460;2022-09-09T12:08:09;21.60;84.10
6536;DHT22;34330;52.08032700;5.40923460;2022-09-09T12:10:39;21.50;83.90
6536;DHT22;34330;52.08032700;5.40923460;2022-09-09T12:13:09;23.80;86.30
6536;DHT22;34330;52.08032700;5.40923460;2022-09-09T12:15:50;22.00;85.90
6536;DHT22;34330;52.08032700;5.40923460;2022-09-09T12:18:23;21.30;85.10
6536;DHT22;34330;52.08032700;5.40923460;2022-09-09T12:20:59;21.20;85.00
6536;DHT22;34330;52.08032700;5.40923460;2022-09-09T12:23:36;21.10;85.50
6536;DHT22;34330;52.08032700;5.40923460;2022-09-09T12:26:23;21.10;86.20
6536;DHT22;34330;52.08032700;5.40923460;2022-09-09T12:29:05;21.10;86.50
6536;DHT22;34330;52.08032700;5.40923460;2022-09-09T12:31:41;21.10;86.50
6536;DHT22;34330;52.08032700;5.40923460;2022-09-09T12:34:13;21.10;86.60
6536;DHT22;34330;52.08032700;5.40923460;2022-09-09T12:36:46;20.10;85.90
6536;DHT22;34330;52.08032700;5.40923460;2022-09-09T12:39:24;21.20;87.10
6536;DHT22;34330;52.08032700;5.40923460;2022-09-09T12:41:55;21.20;87.40
6536;DHT22;34330;52.08032700;5.40923460;2022-09-09T12:44:24;21.20;87.00
6536;DHT22;34330;52.08032700;5.40923460;2022-09-09T12:46:55;21.30;86.90
6536;DHT22;34330;52.08032700;5.40923460;2022-09-09T12:49:31;21.30;86.90
6536;DHT22;34330;52.08032700;5.40923460;2022-09-09T12:52:04;21.40;86.70
6536;DHT22;34330;52.08032700;5.40923460;2022-09-09T12:54:35;21.40;86.40
6536;DHT22;34330;52.08032700;5.40923460;2022-09-09T12:57:04;21.40;86.60
6536;DHT22;34330;52.08032700;5.40923460;2022-09-09T12:59:37;21.40;86.50
6536;DHT22;34330;52.08032700;5.40923460;2022-09-09T13:02:16;21.50;86.70
6536;DHT22;34330;52.08032700;5.40923460;2022-09-09T13:04:45;21.50;86.30
6536;DHT22;34330;52.08032700;5.40923460;2022-09-09T13:07:15;21.50;86.20
6536;DHT22;34330;52.08032700;5.40923460;2022-09-09T13:09:43;23.10;87.50
6536;DHT22;34330;52.08032700;5.40923460;2022-09-09T13:12:14;21.70;85.90
6536;DHT22;34330;52.08032700;5.40923460;2022-09-09T13:14:44;21.60;85.50
6536;DHT22;34330;52.08032700;5.40923460;2022-09-09T13:17:20;21.70;85.30
6536;DHT22;34330;52.08032700;5.40923460;2022-09-09T13:19:50;21.70;85.00
6536;DHT22;34330;52.08032700;5.40923460;2022-09-09T13:22:26;23.10;86.40
6536;DHT22;34330;52.08032700;5.40923460;2022-09-09T13:25:01;21.70;86.10
6536;DHT22;34330;52.08032700;5.40923460;2022-09-09T13:27:31;21.70;85.70
6536;DHT22;34330;52.08032700;5.40923460;2022-09-09T13:30:01;21.70;85.50
6536;DHT22;34330;52.08032700;5.40923460;2022-09-09T13:32:29;21.70;85.70
6536;DHT22;34330;52.08032700;5.40923460;2022-09-09T13:35:00;21.70;85.90
6536;DHT22;34330;52.08032700;5.40923460;2022-09-09T13:37:34;21.70;86.10
6536;DHT22;34330;52.08032700;5.40923460;2022-09-09T13:40:03;24.30;88.70
6536;DHT22;34330;52.08032700;5.40923460;2022-09-09T13:42:36;21.80;85.90
6536;DHT22;34330;52.08032700;5.40923460;2022-09-09T13:45:16;21.80;85.60
6536;DHT22;34330;52.08032700;5.40923460;2022-09-09T13:47:47;21.80;85.80
6536;DHT22;34330;52.08032700;5.40923460;2022-09-09T13:50:19;21.90;85.60
6536;DHT22;34330;52.08032700;5.40923460;2022-09-09T13:52:49;21.90;85.40
6536;DHT22;34330;52.08032700;5.40923460;2022-09-09T13:55:18;21.90;85.30
6536;DHT22;34330;52.08032700;5.40923460;2022-09-09T13:57:51;22.00;84.70
6536;DHT22;34330;52.08032700;5.40923460;2022-09-09T14:00:21;22.00;85.00
6536;DHT22;34330;52.08032700;5.40923460;2022-09-09T14:02:49;22.00;85.30
6536;DHT22;34330;52.08032700;5.40923460;2022-09-09T14:05:18;22.00;85.30
6536;DHT22;34330;52.08032700;5.40923460;2022-09-09T14:07:48;22.00;85.50
6536;DHT22;34330;52.08032700;5.40923460;2022-09-09T14:10:19;22.10;85.80
6536;DHT22;34330;52.08032700;5.40923460;2022-09-09T14:12:47;22.10;85.20
6536;DHT22;34330;52.08032700;5.40923460;2022-09-09T14:15:15;22.10;84.80
6536;DHT22;34330;52.08032700;5.40923460;2022-09-09T14:17:43;22.10;84.60